Terminal Aerodrome Forecast
Issued by NWS

Home | Current Version | Previous Version | Text Only | Print | Product List | Glossary On
Versions: 1 2 3 4 5 6 7 8 9 10 11 12
000
FTUS45 KABQ 241120
TAFAEG
TAF
KAEG 241120Z 2412/2512 20010KT P6SM BKN250
     FM241500 24014G24KT P6SM FEW200
     FM241800 24020G32KT P6SM FEW150
     FM242000 25030G43KT P6SM FEW090 SCT150
     FM250200 26020G30KT P6SM SCT090 BKN150=

USA.gov is the U.S. government's official web portal to all federal, state and local government web resources and services.